sensor_id;sensor_type;location;lat;lon;timestamp;temperature;humidity
10443;DHT22;5269;51.146;16.986;2023-08-31T00:00:51;15.10;99.90
10443;DHT22;5269;51.146;16.986;2023-08-31T00:03:32;15.10;99.90
10443;DHT22;5269;51.146;16.986;2023-08-31T00:06:04;15.10;99.90
10443;DHT22;5269;51.146;16.986;2023-08-31T00:08:52;15.00;99.90
10443;DHT22;5269;51.146;16.986;2023-08-31T00:11:21;15.10;99.90
10443;DHT22;5269;51.146;16.986;2023-08-31T00:13:54;15.00;99.90
10443;DHT22;5269;51.146;16.986;2023-08-31T00:16:27;15.10;99.90
10443;DHT22;5269;51.146;16.986;2023-08-31T00:19:04;15.10;99.90
10443;DHT22;5269;51.146;16.986;2023-08-31T00:21:52;15.20;99.90
10443;DHT22;5269;51.146;16.986;2023-08-31T00:24:31;15.10;99.90
10443;DHT22;5269;51.146;16.986;2023-08-31T00:27:21;15.10;99.90
10443;DHT22;5269;51.146;16.986;2023-08-31T00:29:54;15.30;99.90
10443;DHT22;5269;51.146;16.986;2023-08-31T00:32:35;15.30;99.90
10443;DHT22;5269;51.146;16.986;2023-08-31T00:35:12;15.30;99.90
10443;DHT22;5269;51.146;16.986;2023-08-31T00:37:51;15.20;99.90
10443;DHT22;5269;51.146;16.986;2023-08-31T00:40:30;15.20;99.90
10443;DHT22;5269;51.146;16.986;2023-08-31T00:43:04;15.10;99.90
10443;DHT22;5269;51.146;16.986;2023-08-31T00:45:41;15.00;99.90
10443;DHT22;5269;51.146;16.986;2023-08-31T00:48:33;14.90;99.90
10443;DHT22;5269;51.146;16.986;2023-08-31T00:51:12;14.80;99.90
10443;DHT22;5269;51.146;16.986;2023-08-31T00:53:41;14.80;99.90
10443;DHT22;5269;51.146;16.986;2023-08-31T00:56:35;14.70;99.90
10443;DHT22;5269;51.146;16.986;2023-08-31T00:59:12;14.80;99.90
10443;DHT22;5269;51.146;16.986;2023-08-31T01:01:46;14.70;99.90
10443;DHT22;5269;51.146;16.986;2023-08-31T01:04:34;14.60;99.90
10443;DHT22;5269;51.146;16.986;2023-08-31T01:07:25;14.70;99.90
10443;DHT22;5269;51.146;16.986;2023-08-31T01:10:12;14.60;99.90
10443;DHT22;5269;51.146;16.986;2023-08-31T01:12:56;14.60;99.90
10443;DHT22;5269;51.146;16.986;2023-08-31T01:15:33;14.70;99.90
10443;DHT22;5269;51.146;16.986;2023-08-31T01:18:02;14.60;99.90
10443;DHT22;5269;51.146;16.986;2023-08-31T01:20:34;14.80;99.90
10443;DHT22;5269;51.146;16.986;2023-08-31T01:23:11;14.60;99.90
10443;DHT22;5269;51.146;16.986;2023-08-31T01:28:58;14.90;99.90
10443;DHT22;5269;51.146;16.986;2023-08-31T01:31:53;14.90;99.90
10443;DHT22;5269;51.146;16.986;2023-08-31T01:34:34;14.90;99.90
10443;DHT22;5269;51.146;16.986;2023-08-31T01:37:17;14.90;99.90
10443;DHT22;5269;51.146;16.986;2023-08-31T01:39:58;14.90;99.90
10443;DHT22;5269;51.146;16.986;2023-08-31T01:42:31;14.90;99.90
10443;DHT22;5269;51.146;16.986;2023-08-31T01:45:01;14.80;99.90
10443;DHT22;5269;51.146;16.986;2023-08-31T01:47:31;15.00;99.90
10443;DHT22;5269;51.146;16.986;2023-08-31T01:50:03;15.00;99.90
10443;DHT22;5269;51.146;16.986;2023-08-31T01:52:41;14.90;99.90
10443;DHT22;5269;51.146;16.986;2023-08-31T01:55:13;14.90;99.90
10443;DHT22;5269;51.146;16.986;2023-08-31T01:57:50;14.90;99.90
10443;DHT22;5269;51.146;16.986;2023-08-31T02:00:33;14.70;99.90
10443;DHT22;5269;51.146;16.986;2023-08-31T02:03:26;14.90;99.90
10443;DHT22;5269;51.146;16.986;2023-08-31T02:06:00;14.90;99.90
10443;DHT22;5269;51.146;16.986;2023-08-31T02:08:36;15.00;99.90
10443;DHT22;5269;51.146;16.986;2023-08-31T02:11:11;14.80;99.90
10443;DHT22;5269;51.146;16.986;2023-08-31T02:13:51;14.80;99.90
10443;DHT22;5269;51.146;16.986;2023-08-31T02:16:21;14.90;99.90
10443;DHT22;5269;51.146;16.986;2023-08-31T02:18:52;14.90;99.90
10443;DHT22;5269;51.146;16.986;2023-08-31T02:21:21;14.90;99.90
10443;DHT22;5269;51.146;16.986;2023-08-31T02:23:49;14.90;99.90
10443;DHT22;5269;51.146;16.986;2023-08-31T02:26:21;14.80;99.90
10443;DHT22;5269;51.146;16.986;2023-08-31T02:29:03;14.70;99.90
10443;DHT22;5269;51.146;16.986;2023-08-31T02:31:53;14.70;99.90
10443;DHT22;5269;51.146;16.986;2023-08-31T02:34:34;14.70;99.90
10443;DHT22;5269;51.146;16.986;2023-08-31T02:37:11;14.70;99.90
10443;DHT22;5269;51.146;16.986;2023-08-31T02:39:46;14.80;99.90
10443;DHT22;5269;51.146;16.986;2023-08-31T02:42:21;14.70;99.90
10443;DHT22;5269;51.146;16.986;2023-08-31T02:45:04;14.70;99.90
10443;DHT22;5269;51.146;16.986;2023-08-31T02:47:43;14.70;99.90
10443;DHT22;5269;51.146;16.986;2023-08-31T02:53:41;14.50;99.90
10443;DHT22;5269;51.146;16.986;2023-08-31T02:56:12;14.30;99.90
10443;DHT22;5269;51.146;16.986;2023-08-31T02:58:40;14.50;99.90
10443;DHT22;5269;51.146;16.986;2023-08-31T03:01:08;14.30;99.90
10443;DHT22;5269;51.146;16.986;2023-08-31T03:03:42;14.30;99.90
10443;DHT22;5269;51.146;16.986;2023-08-31T03:06:11;14.40;99.90
10443;DHT22;5269;51.146;16.986;2023-08-31T03:08:40;14.30;99.90
10443;DHT22;5269;51.146;16.986;2023-08-31T03:11:10;14.20;99.90
10443;DHT22;5269;51.146;16.986;2023-08-31T03:13:37;14.10;99.90
10443;DHT22;5269;51.146;16.986;2023-08-31T03:16:04;14.00;99.90
10443;DHT22;5269;51.146;16.986;2023-08-31T03:18:33;13.90;99.90
10443;DHT22;5269;51.146;16.986;2023-08-31T03:21:02;13.90;99.90
10443;DHT22;5269;51.146;16.986;2023-08-31T03:23:31;14.00;99.90
10443;DHT22;5269;51.146;16.986;2023-08-31T03:26:06;14.00;99.90
10443;DHT22;5269;51.146;16.986;2023-08-31T03:28:37;14.00;99.90
10443;DHT22;5269;51.146;16.986;2023-08-31T03:31:09;14.00;99.90
10443;DHT22;5269;51.146;16.986;2023-08-31T03:33:37;14.10;99.90
10443;DHT22;5269;51.146;16.986;2023-08-31T03:36:10;14.10;99.90
10443;DHT22;5269;51.146;16.986;2023-08-31T03:38:39;14.20;99.90
10443;DHT22;5269;51.146;16.986;2023-08-31T03:41:06;14.10;99.90
10443;DHT22;5269;51.146;16.986;2023-08-31T03:43:44;14.10;99.90
10443;DHT22;5269;51.146;16.986;2023-08-31T03:46:11;14.10;99.90
10443;DHT22;5269;51.146;16.986;2023-08-31T03:48:42;14.00;99.90
10443;DHT22;5269;51.146;16.986;2023-08-31T03:51:10;14.00;99.90
10443;DHT22;5269;51.146;16.986;2023-08-31T03:53:41;14.00;99.90
10443;DHT22;5269;51.146;16.986;2023-08-31T03:56:12;13.80;99.90
10443;DHT22;5269;51.146;16.986;2023-08-31T03:58:40;13.80;99.90
10443;DHT22;5269;51.146;16.986;2023-08-31T04:01:12;13.80;99.90
10443;DHT22;5269;51.146;16.986;2023-08-31T04:03:42;13.70;99.90
10443;DHT22;5269;51.146;16.986;2023-08-31T04:06:11;13.70;99.90
10443;DHT22;5269;51.146;16.986;2023-08-31T04:08:40;13.80;99.90
10443;DHT22;5269;51.146;16.986;2023-08-31T04:11:13;13.80;99.90
10443;DHT22;5269;51.146;16.986;2023-08-31T04:13:42;13.70;99.90
10443;DHT22;5269;51.146;16.986;2023-08-31T04:16:10;13.70;99.90
10443;DHT22;5269;51.146;16.986;2023-08-31T04:18:37;13.70;99.90
